createdAt,value
2023-01-20T00:01:34.330Z,32.72
2023-01-20T00:04:04.299Z,37.65
2023-01-20T00:06:31.397Z,33.78
2023-01-20T00:09:00.648Z,28.88
2023-01-20T00:11:29.111Z,29.60
2023-01-20T00:13:58.976Z,30.13
2023-01-20T00:16:26.495Z,30.85
2023-01-20T00:18:56.135Z,30.38
2023-01-20T00:21:25.822Z,34.42
2023-01-20T00:23:53.153Z,35.63
2023-01-20T00:26:24.684Z,38.58
2023-01-20T00:28:55.023Z,38.17
2023-01-20T00:31:25.107Z,35.03
2023-01-20T00:33:56.622Z,34.03
2023-01-20T00:36:24.761Z,38.60
2023-01-20T00:38:52.268Z,33.67
2023-01-20T00:41:19.870Z,38.30
2023-01-20T00:43:47.289Z,38.65
2023-01-20T00:46:14.995Z,38.72
2023-01-20T00:48:45.077Z,37.72
2023-01-20T00:51:12.414Z,34.53
2023-01-20T00:53:39.841Z,42.95
2023-01-20T00:56:07.409Z,37.00
2023-01-20T00:58:37.128Z,37.72
2023-01-20T01:01:04.469Z,40.15
2023-01-20T01:03:31.914Z,38.83
2023-01-20T01:06:16.538Z,30.35
2023-01-20T01:08:44.683Z,27.17
2023-01-20T01:11:17.093Z,26.70
2023-01-20T01:13:48.883Z,25.70
2023-01-20T01:16:16.516Z,23.88
2023-01-20T01:18:44.240Z,23.33
2023-01-20T01:21:16.059Z,23.02
2023-01-20T01:23:44.266Z,23.95
2023-01-20T01:26:11.469Z,22.73
2023-01-20T01:28:39.299Z,24.60
2023-01-20T01:31:07.801Z,24.48
2023-01-20T01:33:35.764Z,26.30
2023-01-20T01:36:06.547Z,26.27
2023-01-20T01:38:33.947Z,31.35
2023-01-20T01:41:01.179Z,28.75
2023-01-20T01:43:38.457Z,27.05
2023-01-20T01:46:06.596Z,28.10
2023-01-20T01:48:41.982Z,28.92
2023-01-20T01:51:18.702Z,30.40
2023-01-20T01:53:49.506Z,26.25
2023-01-20T01:56:17.052Z,30.80
2023-01-20T01:58:47.982Z,25.92
2023-01-20T02:01:17.768Z,30.33
2023-01-20T02:04:05.652Z,33.60
2023-01-20T02:06:36.005Z,35.38
2023-01-20T02:09:05.089Z,29.20
2023-01-20T02:11:37.644Z,28.48
2023-01-20T02:14:08.500Z,31.67
2023-01-20T02:16:44.511Z,28.75
2023-01-20T02:19:42.500Z,29.58
2023-01-20T02:22:24.757Z,28.55
2023-01-20T02:25:26.046Z,32.17
2023-01-20T02:28:23.295Z,30.90
2023-01-20T02:31:32.253Z,29.13
2023-01-20T02:34:04.570Z,35.90
2023-01-20T02:36:47.823Z,34.50
2023-01-20T02:39:33.486Z,39.33
2023-01-20T02:42:14.706Z,38.35
2023-01-20T02:44:46.951Z,38.40
2023-01-20T02:47:26.240Z,38.78
2023-01-20T02:50:07.640Z,37.47
2023-01-20T02:52:48.867Z,40.60
2023-01-20T02:55:25.415Z,35.25
2023-01-20T02:58:02.344Z,36.38
2023-01-20T03:00:44.043Z,34.25
2023-01-20T03:03:15.871Z,33.65
2023-01-20T03:05:49.188Z,31.33
2023-01-20T03:08:18.878Z,38.03
2023-01-20T03:10:47.948Z,31.65
2023-01-20T03:13:27.537Z,34.55
2023-01-20T03:16:07.603Z,33.38
2023-01-20T03:18:36.560Z,32.85
2023-01-20T03:21:07.971Z,37.58
2023-01-20T03:23:39.314Z,31.80
2023-01-20T03:26:12.512Z,30.25
2023-01-20T03:28:42.096Z,30.02
2023-01-20T03:31:21.294Z,27.42
2023-01-20T03:33:51.259Z,28.05
2023-01-20T03:36:20.795Z,28.30
2023-01-20T03:38:51.735Z,28.08
2023-01-20T03:42:03.559Z,27.95
2023-01-20T03:44:34.017Z,31.00
2023-01-20T03:47:31.202Z,34.50
2023-01-20T03:50:17.418Z,29.92
2023-01-20T03:53:00.745Z,33.92
2023-01-20T03:55:56.051Z,32.33
2023-01-20T03:58:30.022Z,33.58
2023-01-20T04:03:45.659Z,34.42
2023-01-20T04:06:17.286Z,30.83
2023-01-20T04:08:50.956Z,32.67
2023-01-20T04:13:45.641Z,39.85
2023-01-20T04:16:16.877Z,42.33
2023-01-20T04:18:47.336Z,38.15
2023-01-20T04:21:49.885Z,39.70
2023-01-20T04:24:16.927Z,38.03
2023-01-20T04:26:44.246Z,39.40
2023-01-20T04:29:13.203Z,42.75
2023-01-20T04:31:40.860Z,37.60
2023-01-20T04:34:10.640Z,38.22
2023-01-20T04:36:38.033Z,42.85
2023-01-20T04:39:05.156Z,40.17
2023-01-20T04:41:32.485Z,41.92
2023-01-20T04:43:59.505Z,39.00
2023-01-20T04:46:27.002Z,38.58
2023-01-20T04:48:54.130Z,42.92
2023-01-20T04:51:21.570Z,37.63
2023-01-20T04:53:56.060Z,41.70
2023-01-20T04:56:23.405Z,38.95
2023-01-20T04:58:50.469Z,37.33
2023-01-20T05:01:17.999Z,37.22
2023-01-20T05:03:47.678Z,40.22
2023-01-20T05:06:17.586Z,37.58
2023-01-20T05:08:47.403Z,38.67
2023-01-20T05:11:19.250Z,42.97
2023-01-20T05:13:46.310Z,44.20
2023-01-20T05:16:13.667Z,46.17
2023-01-20T05:18:40.759Z,48.90
2023-01-20T05:21:08.114Z,51.88
2023-01-20T05:23:35.352Z,53.55
2023-01-20T05:26:02.752Z,47.50
2023-01-20T05:28:30.012Z,53.30
2023-01-20T05:30:57.432Z,52.25
2023-01-20T05:33:24.552Z,52.03
2023-01-20T05:35:52.928Z,52.45
2023-01-20T05:38:20.985Z,56.85
2023-01-20T05:40:48.325Z,56.13
2023-01-20T05:43:15.359Z,60.20
2023-01-20T05:45:42.687Z,62.78
2023-01-20T05:48:09.742Z,56.80
2023-01-20T05:50:37.114Z,65.68
2023-01-20T05:53:04.181Z,72.43
2023-01-20T05:55:31.543Z,60.65
2023-01-20T05:58:01.936Z,59.47
2023-01-20T06:00:30.532Z,73.72
2023-01-20T06:02:58.678Z,65.38
2023-01-20T06:05:26.609Z,69.50
2023-01-20T06:07:57.619Z,86.10
2023-01-20T06:10:25.469Z,71.72
2023-01-20T06:12:52.803Z,63.78
2023-01-20T06:15:22.937Z,61.75
2023-01-20T06:17:50.992Z,66.90
2023-01-20T06:20:19.383Z,66.45
2023-01-20T06:22:46.668Z,62.83
2023-01-20T06:25:14.615Z,64.35
2023-01-20T06:27:41.918Z,64.63
2023-01-20T06:30:12.411Z,66.80
2023-01-20T06:32:41.785Z,66.20
2023-01-20T06:35:11.848Z,69.18
2023-01-20T06:37:38.983Z,68.72
2023-01-20T06:40:09.298Z,72.45
2023-01-20T06:42:36.384Z,77.47
2023-01-20T06:45:06.157Z,67.30
2023-01-20T06:47:33.331Z,58.67
2023-01-20T06:50:03.219Z,58.47
2023-01-20T06:52:30.303Z,50.97
2023-01-20T06:54:57.634Z,50.55
2023-01-20T06:57:27.024Z,54.75
2023-01-20T06:59:54.331Z,64.13
2023-01-20T07:02:21.412Z,80.85
2023-01-20T07:04:54.102Z,86.55
2023-01-20T07:07:21.177Z,92.15
2023-01-20T07:09:48.491Z,74.25
2023-01-20T07:12:15.516Z,72.85
2023-01-20T07:14:45.081Z,69.28
2023-01-20T07:17:12.683Z,70.53
2023-01-20T07:19:40.050Z,78.63
2023-01-20T07:22:09.385Z,77.30
2023-01-20T07:24:36.962Z,85.20
2023-01-20T07:27:04.047Z,81.15
2023-01-20T07:29:33.954Z,79.82
2023-01-20T07:32:01.057Z,78.80
2023-01-20T07:34:28.461Z,72.75
2023-01-20T07:36:57.799Z,69.45
2023-01-20T07:39:27.309Z,69.53
2023-01-20T07:41:54.379Z,61.88
2023-01-20T07:44:21.721Z,70.10
2023-01-20T07:46:50.997Z,73.15
2023-01-20T07:49:18.440Z,63.30
2023-01-20T07:51:45.502Z,64.03
2023-01-20T07:54:12.871Z,69.35
2023-01-20T07:56:40.449Z,74.25
2023-01-20T07:59:07.958Z,83.35
2023-01-20T08:01:35.109Z,83.30
2023-01-20T08:04:02.583Z,87.53
2023-01-20T08:06:30.198Z,79.22
2023-01-20T08:09:01.197Z,85.57
2023-01-20T08:11:28.648Z,85.68
2023-01-20T08:13:56.953Z,77.80
2023-01-20T08:16:26.285Z,84.40
2023-01-20T08:18:54.329Z,74.40
2023-01-20T08:21:24.717Z,78.50
2023-01-20T08:23:55.202Z,76.82
2023-01-20T08:26:22.394Z,90.40
2023-01-20T08:28:49.763Z,103.10
2023-01-20T08:31:21.665Z,105.25
2023-01-20T08:33:52.273Z,98.00
2023-01-20T08:36:22.784Z,80.45
2023-01-20T08:38:50.384Z,66.57
2023-01-20T08:41:22.831Z,65.30
2023-01-20T08:46:19.967Z,73.88
2023-01-20T08:48:48.156Z,79.75
2023-01-20T08:51:28.671Z,76.90
2023-01-20T08:53:59.141Z,80.07
2023-01-20T08:56:26.639Z,82.80
2023-01-20T08:58:57.831Z,71.40
2023-01-20T09:01:27.542Z,71.85
2023-01-20T09:04:07.006Z,76.25
2023-01-20T09:06:44.229Z,76.50
2023-01-20T09:09:12.577Z,73.63
2023-01-20T09:11:40.170Z,73.68
2023-01-20T09:14:07.593Z,66.25
2023-01-20T09:16:34.618Z,60.60
2023-01-20T09:19:01.978Z,63.50
2023-01-20T09:21:29.083Z,59.38
2023-01-20T09:23:56.502Z,45.45
2023-01-20T09:26:35.418Z,42.45
2023-01-20T09:29:10.291Z,36.15
2023-01-20T09:31:51.068Z,37.80
2023-01-20T09:34:21.365Z,35.22
2023-01-20T09:36:57.327Z,34.30
2023-01-20T09:39:25.018Z,23.90
2023-01-20T09:41:52.360Z,26.98
2023-01-20T09:44:46.914Z,28.42
2023-01-20T09:47:17.057Z,24.23
2023-01-20T09:49:53.282Z,23.25
2023-01-20T09:52:32.299Z,16.65
2023-01-20T09:55:08.324Z,12.38
2023-01-20T09:57:40.367Z,11.10
2023-01-20T10:00:16.466Z,12.30
2023-01-20T10:02:48.702Z,13.68
2023-01-20T10:05:21.783Z,9.07
2023-01-20T10:07:58.781Z,11.02
2023-01-20T10:11:13.391Z,11.88
2023-01-20T10:14:07.197Z,14.75
2023-01-20T10:19:21.085Z,20.98
2023-01-20T10:22:03.622Z,21.40
2023-01-20T10:24:43.420Z,17.63
2023-01-20T10:27:10.718Z,17.85
2023-01-20T10:29:43.534Z,13.20
2023-01-20T10:32:38.510Z,12.82
2023-01-20T10:35:12.556Z,12.23
2023-01-20T10:37:40.105Z,15.05
2023-01-20T10:40:41.812Z,18.60
2023-01-20T10:43:14.925Z,14.38
2023-01-20T10:45:51.162Z,16.83
2023-01-20T10:48:42.127Z,17.60
2023-01-20T10:51:30.698Z,16.50
2023-01-20T10:54:16.921Z,17.13
2023-01-20T10:56:43.907Z,19.55
2023-01-20T10:59:17.619Z,20.33
2023-01-20T11:01:56.224Z,35.55
2023-01-20T11:04:27.834Z,22.02
2023-01-20T11:07:00.789Z,27.48
2023-01-20T11:09:35.893Z,19.38
2023-01-20T11:12:09.963Z,18.40
2023-01-20T11:14:39.628Z,16.80
2023-01-20T11:17:14.968Z,18.50
2023-01-20T11:19:56.402Z,17.05
2023-01-20T11:22:32.943Z,18.67
2023-01-20T11:25:02.147Z,20.88
2023-01-20T11:27:35.301Z,20.13
2023-01-20T11:30:16.086Z,20.63
2023-01-20T11:32:45.977Z,22.65
2023-01-20T11:35:24.901Z,21.20
2023-01-20T11:37:52.255Z,20.30
2023-01-20T11:40:28.735Z,23.27
2023-01-20T11:42:56.310Z,21.02
2023-01-20T11:45:35.444Z,20.77
2023-01-20T11:48:08.419Z,18.70
2023-01-20T11:50:39.014Z,19.80
2023-01-20T11:53:21.079Z,22.15
2023-01-20T11:56:14.667Z,21.08
2023-01-20T11:58:58.927Z,23.08
2023-01-20T12:01:49.128Z,18.77
2023-01-20T12:04:37.870Z,20.50
2023-01-20T12:07:37.875Z,23.45
2023-01-20T12:10:32.552Z,21.50
2023-01-20T12:13:20.357Z,22.30
2023-01-20T12:15:52.560Z,21.90
2023-01-20T12:19:00.543Z,31.33
2023-01-20T12:21:43.792Z,25.98
2023-01-20T12:24:42.791Z,21.70
2023-01-20T12:27:23.425Z,22.48
2023-01-20T12:29:54.791Z,22.02
2023-01-20T12:32:22.043Z,22.27
2023-01-20T12:34:49.415Z,21.25
2023-01-20T12:37:34.563Z,16.73
2023-01-20T12:40:08.220Z,19.98
2023-01-20T12:43:15.934Z,25.42
2023-01-20T12:46:21.551Z,27.90
2023-01-20T12:49:05.277Z,20.35
2023-01-20T12:51:44.753Z,20.63
2023-01-20T12:54:22.863Z,24.45
2023-01-20T12:57:02.354Z,27.63
2023-01-20T12:59:47.594Z,25.42
2023-01-20T13:02:53.708Z,27.08
2023-01-20T13:05:35.685Z,28.60
2023-01-20T13:08:22.590Z,24.52
2023-01-20T13:10:59.250Z,25.50
2023-01-20T13:13:29.470Z,23.92
2023-01-20T13:16:18.422Z,24.00
2023-01-20T13:19:06.540Z,24.45
2023-01-20T13:21:34.593Z,24.42
2023-01-20T13:24:04.372Z,33.13
2023-01-20T13:26:32.545Z,26.83
2023-01-20T13:29:00.125Z,36.47
2023-01-20T13:31:32.179Z,25.45
2023-01-20T13:34:22.495Z,24.20
2023-01-20T13:37:04.921Z,24.80
2023-01-20T13:39:48.642Z,23.00
2023-01-20T13:42:36.876Z,23.70
2023-01-20T13:45:13.778Z,23.25
2023-01-20T13:48:07.211Z,22.05
2023-01-20T13:50:37.533Z,23.67
2023-01-20T13:53:07.075Z,22.48
2023-01-20T13:55:43.722Z,29.17
2023-01-20T13:58:24.351Z,25.17
2023-01-20T14:00:56.717Z,23.42
2023-01-20T14:03:25.329Z,27.58
2023-01-20T14:05:54.161Z,30.58
2023-01-20T14:08:22.535Z,27.33
2023-01-20T14:10:50.502Z,29.33
2023-01-20T14:13:24.907Z,33.25
2023-01-20T14:15:55.139Z,32.50
2023-01-20T14:18:25.017Z,32.28
2023-01-20T14:21:03.868Z,32.20
2023-01-20T14:23:38.588Z,38.40
2023-01-20T14:26:10.545Z,33.30
2023-01-20T14:28:45.231Z,37.85
2023-01-20T14:31:17.218Z,41.65
2023-01-20T14:33:45.120Z,36.20
2023-01-20T14:36:17.720Z,37.88
2023-01-20T14:38:57.255Z,42.40
2023-01-20T14:41:28.416Z,40.42
2023-01-20T14:43:56.285Z,42.17
2023-01-20T14:46:31.539Z,37.90
2023-01-20T14:48:59.290Z,37.97
2023-01-20T14:51:27.368Z,43.10
2023-01-20T14:54:27.294Z,40.70
2023-01-20T14:56:57.261Z,42.78
2023-01-20T14:59:29.426Z,40.47
2023-01-20T15:02:09.792Z,48.08
2023-01-20T15:04:37.931Z,48.50
2023-01-20T15:07:06.236Z,49.25
2023-01-20T15:09:34.855Z,48.03
2023-01-20T15:12:46.865Z,47.28
2023-01-20T15:15:22.847Z,48.05
2023-01-20T15:18:11.601Z,46.78
2023-01-20T15:20:42.056Z,46.78
2023-01-20T15:23:35.869Z,50.25
2023-01-20T15:26:19.295Z,45.13
2023-01-20T15:28:46.722Z,44.40
2023-01-20T15:31:17.149Z,36.85
2023-01-20T15:33:44.768Z,32.50
2023-01-20T15:36:20.684Z,28.77
2023-01-20T15:38:48.202Z,31.92
2023-01-20T15:41:15.325Z,32.03
2023-01-20T15:43:42.862Z,37.25
2023-01-20T15:46:12.065Z,51.45
2023-01-20T15:48:39.659Z,43.15
2023-01-20T15:51:11.976Z,41.65
2023-01-20T15:53:39.559Z,44.28
2023-01-20T15:56:10.267Z,41.28
2023-01-20T15:58:39.875Z,41.10
2023-01-20T16:01:14.373Z,44.17
2023-01-20T16:03:41.953Z,44.08
2023-01-20T16:06:16.898Z,50.08
2023-01-20T16:08:46.221Z,49.38
2023-01-20T16:11:14.723Z,51.53
2023-01-20T16:13:42.677Z,59.33
2023-01-20T16:16:15.176Z,58.58
2023-01-20T16:18:43.016Z,52.88
2023-01-20T16:21:19.868Z,55.75
2023-01-20T16:23:47.319Z,52.83
2023-01-20T16:26:21.538Z,51.08
2023-01-20T16:28:56.334Z,53.13
2023-01-20T16:31:24.589Z,45.80
2023-01-20T16:33:55.362Z,45.45
2023-01-20T16:36:23.820Z,47.35
2023-01-20T16:38:53.527Z,57.17
2023-01-20T16:41:21.776Z,46.10
2023-01-20T16:43:50.296Z,56.75
2023-01-20T16:46:20.544Z,58.50
2023-01-20T16:48:48.611Z,57.90
2023-01-20T16:51:22.210Z,63.17
2023-01-20T16:53:49.743Z,58.92
2023-01-20T16:56:19.441Z,61.50
2023-01-20T16:58:50.474Z,62.17
2023-01-20T17:01:21.184Z,63.58
2023-01-20T17:03:48.969Z,64.03
2023-01-20T17:06:20.839Z,59.05
2023-01-20T17:08:53.164Z,59.70
2023-01-20T17:11:22.398Z,63.67
2023-01-20T17:13:53.112Z,63.90
2023-01-20T17:16:21.767Z,68.40
2023-01-20T17:19:00.089Z,61.00
2023-01-20T17:21:32.981Z,72.20
2023-01-20T17:24:02.945Z,65.93
2023-01-20T17:26:32.489Z,69.15
2023-01-20T17:29:05.749Z,77.28
2023-01-20T17:31:35.958Z,76.07
2023-01-20T17:34:04.701Z,88.88
2023-01-20T17:36:32.073Z,66.75
2023-01-20T17:38:59.514Z,80.35
2023-01-20T17:41:26.603Z,68.85
2023-01-20T17:43:54.108Z,82.88
2023-01-20T17:46:23.390Z,81.75
2023-01-20T17:48:51.229Z,80.65
2023-01-20T17:51:24.267Z,70.82
2023-01-20T17:53:52.311Z,74.80
2023-01-20T17:56:21.454Z,73.80
2023-01-20T17:58:49.626Z,68.63
2023-01-20T18:01:16.724Z,81.07
2023-01-20T18:03:45.251Z,87.15
2023-01-20T18:06:16.920Z,105.53
2023-01-20T18:08:49.291Z,103.75
2023-01-20T18:11:16.456Z,88.82
2023-01-20T18:13:49.026Z,100.80
2023-01-20T18:16:17.935Z,91.13
2023-01-20T18:18:46.783Z,121.10
2023-01-20T18:21:22.329Z,112.47
2023-01-20T18:23:50.742Z,83.80
2023-01-20T18:26:20.930Z,82.80
2023-01-20T18:28:48.740Z,80.82
2023-01-20T18:31:20.335Z,100.20
2023-01-20T18:33:50.610Z,81.22
2023-01-20T18:36:24.035Z,93.97
2023-01-20T18:38:52.390Z,87.20
2023-01-20T18:41:20.083Z,78.80
2023-01-20T18:43:48.226Z,101.68
2023-01-20T18:46:18.636Z,83.45
2023-01-20T18:48:47.044Z,82.63
2023-01-20T18:51:16.066Z,76.47
2023-01-20T18:53:54.303Z,72.82
2023-01-20T18:56:21.426Z,79.15
2023-01-20T18:58:48.907Z,75.78
2023-01-20T19:01:25.142Z,72.97
2023-01-20T19:03:52.694Z,77.97
2023-01-20T19:06:27.679Z,83.53
2023-01-20T19:08:57.784Z,72.38
2023-01-20T19:11:27.633Z,75.07
2023-01-20T19:13:55.820Z,81.50
2023-01-20T19:16:25.738Z,89.90
2023-01-20T19:18:58.276Z,75.57
2023-01-20T19:21:28.537Z,99.68
2023-01-20T19:23:57.576Z,83.80
2023-01-20T19:26:28.628Z,91.93
2023-01-20T19:29:00.202Z,91.60
2023-01-20T19:31:27.274Z,86.60
2023-01-20T19:33:54.737Z,80.88
2023-01-20T19:36:24.929Z,89.40
2023-01-20T19:38:52.391Z,95.68
2023-01-20T19:41:21.958Z,83.25
2023-01-20T19:43:56.287Z,87.85
2023-01-20T19:48:53.526Z,95.13
2023-01-20T19:51:20.773Z,94.43
2023-01-20T19:53:48.658Z,93.63
2023-01-20T19:56:18.181Z,103.78
2023-01-20T19:58:47.563Z,97.47
2023-01-20T20:01:19.553Z,116.90
2023-01-20T20:03:48.137Z,114.97
2023-01-20T20:06:32.792Z,107.05
2023-01-20T20:09:07.973Z,96.93
2023-01-20T20:11:37.462Z,90.70
2023-01-20T20:14:07.132Z,97.35
2023-01-20T20:16:36.146Z,93.60
2023-01-20T20:19:04.533Z,88.93
2023-01-20T20:21:31.833Z,100.57
2023-01-20T20:24:02.691Z,113.93
2023-01-20T20:26:32.464Z,92.55
2023-01-20T20:29:01.711Z,83.32
2023-01-20T20:31:29.758Z,88.38
2023-01-20T20:34:01.443Z,97.03
2023-01-20T20:36:31.167Z,86.22
2023-01-20T20:39:03.229Z,83.88
2023-01-20T20:41:30.804Z,88.75
2023-01-20T20:44:00.721Z,91.90
2023-01-20T20:46:29.126Z,85.90
2023-01-20T20:49:00.400Z,84.32
2023-01-20T20:51:33.462Z,84.88
2023-01-20T20:54:02.298Z,56.67
2023-01-20T20:56:30.325Z,79.20
2023-01-20T20:59:03.060Z,76.88
2023-01-20T21:01:33.489Z,75.97
2023-01-20T21:04:02.208Z,80.95
2023-01-20T21:06:30.510Z,76.22
2023-01-20T21:08:58.280Z,77.90
2023-01-20T21:11:25.738Z,69.93
2023-01-20T21:13:53.368Z,69.63
2023-01-20T21:16:24.138Z,70.97
2023-01-20T21:18:58.203Z,68.03
2023-01-20T21:21:25.778Z,74.68
2023-01-20T21:23:55.280Z,76.75
2023-01-20T21:26:23.939Z,71.10
2023-01-20T21:28:51.575Z,69.40
2023-01-20T21:31:21.621Z,75.97
2023-01-20T21:33:56.438Z,75.50
2023-01-20T21:36:24.000Z,73.80
2023-01-20T21:38:51.603Z,77.43
2023-01-20T21:41:19.478Z,84.43
2023-01-20T21:43:49.448Z,79.18
2023-01-20T21:46:17.047Z,78.15
2023-01-20T21:48:44.699Z,77.70
2023-01-20T21:51:11.796Z,80.32
2023-01-20T21:53:39.129Z,83.75
2023-01-20T21:56:06.519Z,81.35
2023-01-20T21:58:33.827Z,70.93
2023-01-20T22:01:03.308Z,72.63
2023-01-20T22:03:30.833Z,71.88
2023-01-20T22:05:57.903Z,76.47
2023-01-20T22:08:27.681Z,72.47
2023-01-20T22:11:00.528Z,72.80
2023-01-20T22:13:30.352Z,84.38
2023-01-20T22:16:01.230Z,77.55
2023-01-20T22:18:28.848Z,77.18
2023-01-20T22:21:04.727Z,73.30
2023-01-20T22:23:35.462Z,79.53
2023-01-20T22:26:03.262Z,72.80
2023-01-20T22:28:30.980Z,76.53
2023-01-20T22:31:15.835Z,80.03
2023-01-20T22:33:43.415Z,67.32
2023-01-20T22:36:10.565Z,76.15
2023-01-20T22:38:37.904Z,80.70
2023-01-20T22:41:08.742Z,83.70
2023-01-20T22:43:36.223Z,76.93
2023-01-20T22:46:03.377Z,82.60
2023-01-20T22:48:34.275Z,77.57
2023-01-20T22:51:12.610Z,80.88
2023-01-20T22:53:44.081Z,83.20
2023-01-20T22:56:25.839Z,70.78
2023-01-20T22:58:53.723Z,72.03
2023-01-20T23:01:24.211Z,76.80
2023-01-20T23:03:59.040Z,79.43
2023-01-20T23:06:28.018Z,76.50
2023-01-20T23:08:55.528Z,81.63
2023-01-20T23:11:24.835Z,74.47
2023-01-20T23:13:59.340Z,86.13
2023-01-20T23:16:28.739Z,83.25
2023-01-20T23:18:56.310Z,82.15
2023-01-20T23:21:23.597Z,87.75
2023-01-20T23:23:51.055Z,88.60
2023-01-20T23:26:18.747Z,79.35
2023-01-20T23:28:46.802Z,77.85
2023-01-20T23:31:16.006Z,78.40
2023-01-20T23:33:46.013Z,73.28
2023-01-20T23:36:26.566Z,81.07
2023-01-20T23:38:56.967Z,78.47
2023-01-20T23:41:24.741Z,75.93
2023-01-20T23:43:52.326Z,69.50
2023-01-20T23:46:19.587Z,76.93
2023-01-20T23:48:47.139Z,82.28
2023-01-20T23:51:14.627Z,77.65
2023-01-20T23:53:46.533Z,88.68
2023-01-20T23:56:19.679Z,78.13
2023-01-20T23:58:47.362Z,74.45
